createdAt,value
2019-05-30T00:00:17.489Z,8.93
2019-05-30T00:02:45.708Z,8.92
2019-05-30T00:05:14.854Z,8.88
2019-05-30T00:07:43.873Z,8.84
2019-05-30T00:10:13.121Z,8.88
2019-05-30T00:12:42.139Z,8.85
2019-05-30T00:15:11.231Z,8.81
2019-05-30T00:17:40.300Z,8.82
2019-05-30T00:20:09.415Z,8.78
2019-05-30T00:22:38.456Z,8.81
2019-05-30T00:25:10.434Z,8.77
2019-05-30T00:27:39.458Z,8.68
2019-05-30T00:30:23.276Z,8.70
2019-05-30T00:32:39.306Z,8.66
2019-05-30T00:35:08.516Z,8.61
2019-05-30T00:37:37.792Z,8.58
2019-05-30T00:40:09.900Z,8.46
2019-05-30T00:42:38.941Z,8.46
2019-05-30T00:45:19.810Z,8.39
2019-05-30T00:47:38.756Z,8.36
2019-05-30T00:50:08.247Z,8.35
2019-05-30T00:52:37.267Z,8.24
2019-05-30T00:55:07.237Z,8.25
2019-05-30T00:57:36.388Z,8.26
2019-05-30T01:00:07.484Z,8.20
2019-05-30T01:02:36.578Z,8.21
2019-05-30T01:05:08.113Z,8.15
2019-05-30T01:07:37.368Z,8.13
2019-05-30T01:10:08.133Z,8.12
2019-05-30T01:12:37.287Z,8.14
2019-05-30T01:15:07.762Z,8.10
2019-05-30T01:17:36.915Z,8.07
2019-05-30T01:20:09.170Z,8.00
2019-05-30T01:22:38.273Z,7.97
2019-05-30T01:25:09.175Z,7.80
2019-05-30T01:27:38.208Z,7.78
2019-05-30T01:30:10.046Z,7.78
2019-05-30T01:32:39.074Z,7.75
2019-05-30T01:35:08.315Z,7.74
2019-05-30T01:37:37.384Z,7.74
2019-05-30T01:40:09.478Z,7.67
2019-05-30T01:42:38.511Z,7.66
2019-05-30T01:45:11.017Z,7.62
2019-05-30T01:47:40.100Z,7.59
2019-05-30T01:50:10.917Z,7.54
2019-05-30T01:52:39.919Z,7.50
2019-05-30T01:55:12.443Z,7.55
2019-05-30T01:57:41.507Z,7.50
2019-05-30T02:00:21.158Z,7.50
2019-05-30T02:02:47.041Z,7.47
2019-05-30T02:05:16.060Z,7.39
2019-05-30T02:07:45.247Z,7.39
2019-05-30T02:10:15.246Z,7.44
2019-05-30T02:12:44.260Z,7.46
2019-05-30T02:15:14.801Z,7.51
2019-05-30T02:17:43.818Z,7.49
2019-05-30T02:20:13.031Z,7.47
2019-05-30T02:22:42.192Z,7.46
2019-05-30T02:25:11.218Z,7.38
2019-05-30T02:27:40.220Z,7.36
2019-05-30T02:30:12.566Z,7.35
2019-05-30T02:32:40.279Z,7.32
2019-05-30T02:35:12.208Z,7.35
2019-05-30T02:37:40.260Z,7.37
2019-05-30T02:40:14.584Z,7.40
2019-05-30T02:42:40.776Z,7.39
2019-05-30T02:45:12.235Z,7.45
2019-05-30T02:47:40.637Z,7.43
2019-05-30T02:50:11.602Z,7.46
2019-05-30T02:52:40.598Z,7.50
2019-05-30T02:55:12.596Z,7.52
2019-05-30T02:57:40.437Z,7.58
2019-05-30T03:00:16.163Z,7.67
2019-05-30T03:02:41.211Z,7.68
2019-05-30T03:05:12.744Z,7.77
2019-05-30T03:07:41.048Z,7.80
2019-05-30T03:10:14.568Z,7.83
2019-05-30T03:12:42.263Z,7.95
2019-05-30T03:15:14.570Z,8.07
2019-05-30T03:17:42.735Z,8.18
2019-05-30T03:20:21.893Z,8.28
2019-05-30T03:22:43.005Z,8.24
2019-05-30T03:25:15.583Z,8.34
2019-05-30T03:27:42.964Z,8.30
2019-05-30T03:30:24.915Z,8.24
2019-05-30T03:35:24.075Z,8.38
2019-05-30T03:37:44.338Z,8.40
2019-05-30T03:40:13.429Z,8.56
2019-05-30T03:42:42.469Z,8.60
2019-05-30T03:45:14.086Z,8.74
2019-05-30T03:47:49.673Z,8.81
2019-05-30T03:50:18.840Z,8.90
2019-05-30T03:52:47.859Z,8.96
2019-05-30T03:55:16.961Z,8.84
2019-05-30T03:58:16.634Z,8.99
2019-05-30T04:00:55.645Z,8.83
2019-05-30T04:03:50.574Z,8.78
2019-05-30T04:06:32.617Z,8.94
2019-05-30T04:09:07.839Z,9.01
2019-05-30T04:12:14.999Z,9.08
2019-05-30T04:14:44.950Z,9.17
2019-05-30T04:17:16.074Z,9.21
2019-05-30T04:19:44.867Z,9.29
2019-05-30T04:22:15.386Z,9.53
2019-05-30T04:24:44.628Z,9.49
2019-05-30T04:27:13.932Z,9.43
2019-05-30T04:29:43.010Z,9.45
2019-05-30T04:32:12.478Z,9.55
2019-05-30T04:34:41.552Z,9.78
2019-05-30T04:37:10.771Z,9.86
2019-05-30T04:39:40.210Z,10.10
2019-05-30T04:42:09.410Z,10.35
2019-05-30T04:44:40.191Z,10.50
2019-05-30T04:47:10.104Z,10.59
2019-05-30T04:49:39.448Z,10.46
2019-05-30T04:52:11.959Z,10.64
2019-05-30T04:54:39.280Z,10.87
2019-05-30T04:57:08.375Z,10.90
2019-05-30T04:59:37.462Z,10.91
2019-05-30T05:02:06.505Z,10.73
2019-05-30T05:04:35.605Z,10.94
2019-05-30T05:07:04.635Z,10.99
2019-05-30T05:09:33.837Z,11.13
2019-05-30T05:12:02.872Z,11.36
2019-05-30T05:14:31.914Z,11.65
2019-05-30T05:17:00.961Z,11.73
2019-05-30T05:19:30.055Z,11.80
2019-05-30T05:21:59.786Z,11.69
2019-05-30T05:24:29.574Z,12.00
2019-05-30T05:26:59.585Z,11.67
2019-05-30T05:29:29.268Z,11.88
2019-05-30T05:31:58.833Z,12.07
2019-05-30T05:34:28.232Z,12.11
2019-05-30T05:36:57.809Z,12.04
2019-05-30T05:39:28.376Z,12.08
2019-05-30T05:41:59.905Z,11.91
2019-05-30T05:44:29.605Z,11.78
2019-05-30T05:46:59.119Z,12.03
2019-05-30T05:49:28.848Z,12.25
2019-05-30T05:51:58.438Z,12.26
2019-05-30T05:54:29.127Z,12.36
2019-05-30T05:56:59.046Z,12.24
2019-05-30T05:59:29.286Z,12.45
2019-05-30T06:01:58.665Z,12.69
2019-05-30T06:04:30.498Z,12.69
2019-05-30T06:07:00.008Z,12.78
2019-05-30T06:09:29.435Z,13.16
2019-05-30T06:11:58.742Z,13.15
2019-05-30T06:14:28.173Z,12.99
2019-05-30T06:16:57.570Z,13.21
2019-05-30T06:19:27.454Z,13.10
2019-05-30T06:21:56.734Z,13.24
2019-05-30T06:24:25.987Z,13.69
2019-05-30T06:26:55.204Z,13.77
2019-05-30T06:29:24.497Z,14.07
2019-05-30T06:31:53.799Z,14.15
2019-05-30T06:34:32.831Z,14.07
2019-05-30T06:36:53.830Z,14.22
2019-05-30T06:39:23.423Z,14.40
2019-05-30T06:41:52.635Z,14.26
2019-05-30T06:44:21.870Z,14.43
2019-05-30T06:46:51.109Z,14.46
2019-05-30T06:49:20.584Z,14.64
2019-05-30T06:51:49.838Z,14.48
2019-05-30T06:54:19.027Z,14.76
2019-05-30T06:56:48.125Z,14.78
2019-05-30T06:59:17.172Z,15.02
2019-05-30T07:01:46.751Z,14.96
2019-05-30T07:04:16.480Z,15.30
2019-05-30T07:06:46.063Z,15.20
2019-05-30T07:09:15.353Z,15.31
2019-05-30T07:11:44.586Z,15.42
2019-05-30T07:14:14.800Z,15.32
2019-05-30T07:16:43.960Z,15.82
2019-05-30T07:19:13.115Z,15.77
2019-05-30T07:21:42.202Z,16.03
2019-05-30T07:24:11.261Z,15.54
2019-05-30T07:26:40.282Z,15.31
2019-05-30T07:29:09.451Z,15.53
2019-05-30T07:31:38.477Z,15.60
2019-05-30T07:34:07.614Z,15.78
2019-05-30T07:36:36.721Z,15.70
2019-05-30T07:39:08.637Z,16.10
2019-05-30T07:41:37.887Z,16.40
2019-05-30T07:44:06.917Z,16.73
2019-05-30T07:46:37.190Z,16.97
2019-05-30T07:49:06.388Z,16.97
2019-05-30T07:51:35.413Z,17.01
2019-05-30T07:54:04.715Z,17.11
2019-05-30T07:56:33.802Z,16.89
2019-05-30T07:59:02.856Z,16.87
2019-05-30T08:01:33.099Z,17.11
2019-05-30T08:04:02.125Z,17.15
2019-05-30T08:06:31.526Z,17.39
2019-05-30T08:09:00.604Z,17.50
2019-05-30T08:11:30.803Z,17.58
2019-05-30T08:14:00.289Z,17.35
2019-05-30T08:16:31.259Z,17.57
2019-05-30T08:19:00.374Z,17.62
2019-05-30T08:21:29.809Z,17.46
2019-05-30T08:23:59.010Z,17.47
2019-05-30T08:26:28.197Z,17.20
2019-05-30T08:28:58.252Z,17.36
2019-05-30T08:31:28.607Z,17.51
2019-05-30T08:33:59.166Z,17.63
2019-05-30T08:36:28.773Z,17.63
2019-05-30T08:38:57.869Z,17.88
2019-05-30T08:41:26.899Z,17.69
2019-05-30T08:43:55.915Z,17.65
2019-05-30T08:46:25.127Z,17.90
2019-05-30T08:48:54.277Z,17.66
2019-05-30T08:51:23.377Z,17.58
2019-05-30T08:53:52.629Z,18.03
2019-05-30T08:56:21.742Z,17.96
2019-05-30T08:58:50.935Z,17.92
2019-05-30T09:01:20.966Z,18.15
2019-05-30T09:03:49.982Z,18.33
2019-05-30T09:06:19.084Z,18.29
2019-05-30T09:08:48.098Z,18.09
2019-05-30T09:11:17.122Z,18.24
2019-05-30T09:13:46.773Z,18.33
2019-05-30T09:16:15.908Z,18.61
2019-05-30T09:18:45.265Z,18.50
2019-05-30T09:21:14.446Z,18.79
2019-05-30T09:23:44.007Z,18.61
2019-05-30T09:26:13.195Z,18.17
2019-05-30T09:28:46.263Z,18.53
2019-05-30T09:31:15.375Z,18.42
2019-05-30T09:33:44.708Z,18.57
2019-05-30T09:36:14.211Z,18.53
2019-05-30T09:38:43.610Z,18.65
2019-05-30T09:41:12.674Z,18.92
2019-05-30T09:43:42.934Z,18.45
2019-05-30T09:46:12.435Z,18.74
2019-05-30T09:48:43.055Z,18.71
2019-05-30T09:51:12.276Z,18.64
2019-05-30T09:53:42.455Z,18.58
2019-05-30T09:56:12.113Z,18.60
2019-05-30T09:58:42.240Z,18.87
2019-05-30T10:01:11.880Z,18.71
2019-05-30T10:03:43.053Z,18.81
2019-05-30T10:06:11.787Z,18.68
2019-05-30T10:08:40.823Z,18.42
2019-05-30T10:11:09.864Z,18.41
2019-05-30T10:13:38.948Z,18.24
2019-05-30T10:16:08.993Z,18.38
2019-05-30T10:18:38.097Z,18.64
2019-05-30T10:21:07.145Z,18.49
2019-05-30T10:23:36.255Z,18.29
2019-05-30T10:26:05.409Z,18.02
2019-05-30T10:28:34.481Z,18.19
2019-05-30T10:31:03.588Z,18.16
2019-05-30T10:33:32.607Z,18.17
2019-05-30T10:36:01.623Z,18.16
2019-05-30T10:38:30.644Z,18.48
2019-05-30T10:40:59.693Z,18.55
2019-05-30T10:43:28.704Z,18.73
2019-05-30T10:45:57.709Z,18.59
2019-05-30T10:48:26.736Z,18.71
2019-05-30T10:50:56.455Z,18.83
2019-05-30T10:53:25.585Z,18.58
2019-05-30T10:55:54.940Z,18.46
2019-05-30T10:58:24.447Z,18.30
2019-05-30T11:00:58.672Z,18.58
2019-05-30T11:03:28.762Z,18.62
2019-05-30T11:06:20.328Z,18.39
2019-05-30T11:08:50.574Z,18.66
2019-05-30T11:11:19.752Z,18.64
2019-05-30T11:13:48.997Z,18.65
2019-05-30T11:16:18.578Z,18.57
2019-05-30T11:18:48.960Z,18.93
2019-05-30T11:21:18.597Z,18.99
2019-05-30T11:23:47.914Z,19.05
2019-05-30T11:26:18.330Z,18.78
2019-05-30T11:28:48.554Z,18.88
2019-05-30T11:31:17.863Z,18.92
2019-05-30T11:33:46.897Z,19.03
2019-05-30T11:36:16.026Z,18.84
2019-05-30T11:38:45.024Z,19.00
2019-05-30T11:41:14.054Z,19.19
2019-05-30T11:43:43.227Z,18.95
2019-05-30T11:46:12.310Z,19.04
2019-05-30T11:48:41.330Z,19.34
2019-05-30T11:51:10.612Z,19.64
2019-05-30T11:53:39.685Z,19.81
2019-05-30T11:56:08.773Z,19.91
2019-05-30T11:58:37.787Z,19.94
2019-05-30T12:01:06.838Z,19.77
2019-05-30T12:03:35.849Z,19.90
2019-05-30T12:06:05.021Z,20.03
2019-05-30T12:08:34.094Z,20.09
2019-05-30T12:11:03.139Z,20.10
2019-05-30T12:13:32.260Z,20.28
2019-05-30T12:16:01.856Z,20.08
2019-05-30T12:18:31.116Z,20.22
2019-05-30T12:21:00.135Z,20.39
2019-05-30T12:23:29.792Z,20.36
2019-05-30T12:25:59.957Z,20.03
2019-05-30T12:28:29.603Z,20.18
2019-05-30T12:31:04.260Z,20.35
2019-05-30T12:33:29.726Z,20.56
2019-05-30T12:35:58.965Z,20.73
2019-05-30T12:38:28.334Z,20.94
2019-05-30T12:40:58.718Z,21.01
2019-05-30T12:43:28.433Z,21.33
2019-05-30T12:45:59.028Z,21.68
2019-05-30T12:48:30.392Z,22.09
2019-05-30T12:51:01.779Z,22.45
2019-05-30T12:53:30.877Z,22.44
2019-05-30T12:56:00.575Z,22.07
2019-05-30T12:58:31.771Z,21.88
2019-05-30T13:01:02.869Z,22.52
2019-05-30T13:03:32.270Z,22.43
2019-05-30T13:06:01.488Z,22.74
2019-05-30T13:08:30.571Z,23.06
2019-05-30T13:10:59.840Z,23.54
2019-05-30T13:13:29.346Z,23.42
2019-05-30T13:15:58.796Z,23.50
2019-05-30T13:18:28.061Z,23.70
2019-05-30T13:21:04.273Z,24.07
2019-05-30T13:23:33.517Z,23.50
2019-05-30T13:26:03.820Z,23.13
2019-05-30T13:28:33.155Z,22.70
2019-05-30T13:31:02.374Z,23.05
2019-05-30T13:33:31.598Z,23.03
2019-05-30T13:36:01.053Z,23.38
2019-05-30T13:38:30.330Z,23.60
2019-05-30T13:40:59.613Z,23.68
2019-05-30T13:43:28.750Z,23.76
2019-05-30T13:45:58.163Z,23.66
2019-05-30T13:48:28.039Z,23.62
2019-05-30T13:50:57.262Z,23.98
2019-05-30T13:53:27.854Z,24.16
2019-05-30T13:55:57.019Z,23.91
2019-05-30T13:58:26.304Z,24.14
2019-05-30T14:00:55.364Z,24.02
2019-05-30T14:03:24.529Z,24.55
2019-05-30T14:05:53.654Z,24.79
2019-05-30T14:08:22.858Z,24.84
2019-05-30T14:10:51.981Z,24.37
2019-05-30T14:13:21.162Z,24.72
2019-05-30T14:15:50.284Z,25.02
2019-05-30T14:18:19.345Z,25.30
2019-05-30T14:20:48.446Z,25.40
2019-05-30T14:23:17.674Z,25.71
2019-05-30T14:25:46.852Z,26.07
2019-05-30T14:28:15.894Z,25.86
2019-05-30T14:30:47.891Z,25.34
2019-05-30T14:33:17.134Z,25.72
2019-05-30T14:35:46.195Z,26.18
2019-05-30T14:38:15.312Z,26.37
2019-05-30T14:40:44.373Z,26.16
2019-05-30T14:43:13.637Z,26.72
2019-05-30T14:45:42.721Z,27.17
2019-05-30T14:48:12.582Z,26.56
2019-05-30T14:50:41.755Z,26.69
2019-05-30T14:53:11.033Z,26.95
2019-05-30T14:55:40.182Z,27.08
2019-05-30T14:58:09.234Z,27.04
2019-05-30T15:00:38.247Z,27.08
2019-05-30T15:03:10.217Z,26.26
2019-05-30T15:05:38.163Z,26.49
2019-05-30T15:08:08.430Z,26.37
2019-05-30T15:10:37.705Z,26.00
2019-05-30T15:13:07.497Z,25.96
2019-05-30T15:15:36.720Z,26.24
2019-05-30T15:18:06.755Z,26.14
2019-05-30T15:20:36.024Z,25.57
2019-05-30T15:23:05.516Z,26.05
2019-05-30T15:25:35.048Z,26.21
2019-05-30T15:28:04.117Z,25.74
2019-05-30T15:30:33.166Z,26.27
2019-05-30T15:33:02.187Z,26.53
2019-05-30T15:35:31.207Z,26.58
2019-05-30T15:38:00.287Z,26.44
2019-05-30T15:40:29.389Z,25.78
2019-05-30T15:42:58.478Z,25.91
2019-05-30T15:45:27.599Z,25.13
2019-05-30T15:47:56.692Z,25.14
2019-05-30T15:50:25.747Z,24.40
2019-05-30T15:52:54.935Z,24.47
2019-05-30T15:55:23.958Z,24.12
2019-05-30T15:57:52.989Z,23.74
2019-05-30T16:00:22.781Z,23.66
2019-05-30T16:02:51.833Z,23.20
2019-05-30T16:05:21.396Z,22.40
2019-05-30T16:07:50.477Z,22.27
2019-05-30T16:10:19.533Z,22.11
2019-05-30T16:12:48.562Z,22.02
2019-05-30T16:15:18.049Z,21.74
2019-05-30T16:17:47.066Z,21.66
2019-05-30T16:20:18.025Z,21.53
2019-05-30T16:22:47.926Z,21.13
2019-05-30T16:25:17.769Z,21.09
2019-05-30T16:27:46.942Z,20.92
2019-05-30T16:30:22.080Z,20.60
2019-05-30T16:32:48.541Z,20.50
2019-05-30T16:35:18.199Z,20.40
2019-05-30T16:37:47.694Z,20.40
2019-05-30T16:40:16.775Z,20.20
2019-05-30T16:42:45.952Z,20.15
2019-05-30T16:45:19.479Z,20.02
2019-05-30T16:47:49.220Z,19.94
2019-05-30T16:50:18.968Z,19.73
2019-05-30T16:52:48.099Z,19.67
2019-05-30T16:55:17.264Z,19.60
2019-05-30T16:57:46.345Z,19.51
2019-05-30T17:00:15.782Z,19.45
2019-05-30T17:02:44.850Z,19.35
2019-05-30T17:05:14.052Z,19.29
2019-05-30T17:07:43.132Z,19.22
2019-05-30T17:10:23.306Z,19.11
2019-05-30T17:12:43.552Z,19.08
2019-05-30T17:15:13.548Z,19.01
2019-05-30T17:17:42.644Z,18.97
2019-05-30T17:20:12.208Z,18.93
2019-05-30T17:22:41.313Z,18.88
2019-05-30T17:25:10.411Z,18.88
2019-05-30T17:27:39.451Z,18.87
2019-05-30T17:30:10.241Z,18.87
2019-05-30T17:32:39.348Z,18.72
2019-05-30T17:35:09.273Z,18.72
2019-05-30T17:37:38.400Z,18.67
2019-05-30T17:40:07.541Z,18.54
2019-05-30T17:42:36.888Z,18.54
2019-05-30T17:45:12.219Z,18.50
2019-05-30T17:47:41.416Z,18.44
2019-05-30T17:50:12.513Z,18.40
2019-05-30T17:52:41.640Z,18.35
2019-05-30T17:55:10.975Z,18.34
2019-05-30T17:57:40.071Z,18.32
2019-05-30T18:00:12.033Z,18.25
2019-05-30T18:02:42.061Z,18.20
2019-05-30T18:05:11.159Z,18.20
2019-05-30T18:07:40.408Z,18.13
2019-05-30T18:10:09.709Z,18.06
2019-05-30T18:12:38.733Z,18.04
2019-05-30T18:15:13.472Z,17.98
2019-05-30T18:17:42.513Z,17.89
